createdAt,value
2018-07-12T00:00:47.359Z,0.00
2018-07-12T00:01:47.531Z,0.00
2018-07-12T00:02:47.717Z,0.00
2018-07-12T00:03:47.901Z,0.00
2018-07-12T00:04:48.083Z,0.00
2018-07-12T00:05:48.258Z,0.00
2018-07-12T00:06:48.433Z,0.00
2018-07-12T00:07:48.616Z,0.00
2018-07-12T00:08:48.803Z,0.00
2018-07-12T00:09:48.988Z,0.00
2018-07-12T00:10:49.169Z,0.00
2018-07-12T00:11:49.347Z,0.00
2018-07-12T00:12:49.524Z,0.00
2018-07-12T00:13:49.700Z,0.00
2018-07-12T00:14:49.893Z,0.00
2018-07-12T00:15:50.075Z,0.00
2018-07-12T00:16:50.253Z,0.00
2018-07-12T00:17:50.440Z,0.00
2018-07-12T00:18:50.616Z,0.00
2018-07-12T00:19:50.803Z,0.00
2018-07-12T00:20:50.984Z,0.00
2018-07-12T00:21:51.157Z,0.00
2018-07-12T00:22:51.338Z,0.00
2018-07-12T00:23:51.518Z,0.00
2018-07-12T00:24:51.697Z,0.00
2018-07-12T00:25:51.881Z,0.00
2018-07-12T00:26:52.056Z,0.00
2018-07-12T00:27:52.241Z,0.00
2018-07-12T00:28:52.413Z,0.00
2018-07-12T00:29:52.602Z,0.00
2018-07-12T00:30:52.780Z,0.00
2018-07-12T00:31:52.958Z,0.00
2018-07-12T00:32:53.136Z,0.00
2018-07-12T00:33:53.311Z,0.00
2018-07-12T00:34:53.488Z,0.00
2018-07-12T00:35:53.689Z,0.00
2018-07-12T00:36:53.883Z,0.00
2018-07-12T00:37:54.069Z,0.00
2018-07-12T00:38:54.245Z,0.00
2018-07-12T00:39:54.431Z,0.00
2018-07-12T00:40:54.608Z,0.00
2018-07-12T00:41:54.795Z,0.00
2018-07-12T00:42:54.966Z,0.00
2018-07-12T00:43:55.143Z,0.00
2018-07-12T00:44:55.321Z,0.00
2018-07-12T00:45:55.506Z,0.00
2018-07-12T00:46:55.698Z,0.00
2018-07-12T00:47:55.870Z,0.00
2018-07-12T00:48:56.047Z,0.00
2018-07-12T00:49:56.245Z,0.00
2018-07-12T00:50:56.424Z,0.00
2018-07-12T00:51:56.603Z,0.00
2018-07-12T00:52:56.778Z,0.00
2018-07-12T00:53:56.959Z,0.00
2018-07-12T00:54:57.152Z,0.00
2018-07-12T00:55:57.347Z,0.00
2018-07-12T00:56:57.522Z,0.00
2018-07-12T00:57:57.712Z,0.00
2018-07-12T00:58:57.886Z,0.00
2018-07-12T00:59:58.062Z,0.00
2018-07-12T01:00:58.241Z,0.00
2018-07-12T01:01:58.442Z,0.00
2018-07-12T01:02:58.627Z,0.00
2018-07-12T01:03:58.806Z,0.00
2018-07-12T01:04:58.983Z,0.00
2018-07-12T01:05:59.178Z,0.00
2018-07-12T01:06:59.358Z,0.00
2018-07-12T01:07:59.560Z,0.00
2018-07-12T01:08:59.734Z,0.00
2018-07-12T01:09:59.938Z,0.00
2018-07-12T01:11:00.126Z,0.00
2018-07-12T01:12:00.301Z,0.00
2018-07-12T01:13:00.545Z,0.00
2018-07-12T01:14:00.662Z,0.00
2018-07-12T01:15:00.847Z,0.00
2018-07-12T01:16:01.028Z,0.00
2018-07-12T01:17:01.208Z,0.00
2018-07-12T01:18:01.395Z,0.00
2018-07-12T01:19:01.570Z,0.00
2018-07-12T01:20:01.755Z,0.00
2018-07-12T01:21:01.928Z,0.00
2018-07-12T01:22:02.105Z,0.00
2018-07-12T01:23:02.287Z,0.00
2018-07-12T01:24:02.468Z,0.00
2018-07-12T01:25:02.694Z,0.00
2018-07-12T01:26:02.824Z,0.00
2018-07-12T01:27:02.998Z,0.00
2018-07-12T01:28:03.172Z,0.00
2018-07-12T01:29:03.376Z,0.00
2018-07-12T01:30:03.572Z,0.00
2018-07-12T01:31:03.756Z,0.00
2018-07-12T01:32:03.936Z,0.00
2018-07-12T01:33:04.115Z,0.00
2018-07-12T01:34:04.294Z,0.00
2018-07-12T01:35:04.472Z,0.00
2018-07-12T01:36:04.665Z,0.00
2018-07-12T01:37:04.835Z,0.00
2018-07-12T01:38:05.017Z,0.00
2018-07-12T01:39:05.198Z,0.00
2018-07-12T01:40:05.377Z,0.00
2018-07-12T01:41:05.548Z,0.00
2018-07-12T01:42:05.724Z,0.00
2018-07-12T01:43:05.909Z,0.00
2018-07-12T01:44:06.081Z,0.00
2018-07-12T01:45:06.271Z,0.00
2018-07-12T01:46:06.458Z,0.00
2018-07-12T01:47:06.637Z,0.00
2018-07-12T01:48:06.828Z,0.00
2018-07-12T01:49:07.006Z,0.00
2018-07-12T01:50:07.184Z,0.00
2018-07-12T01:51:07.379Z,0.00
2018-07-12T01:52:07.559Z,0.00
2018-07-12T01:53:07.748Z,0.00
2018-07-12T01:54:07.926Z,0.00
2018-07-12T01:55:08.098Z,0.00
2018-07-12T01:56:08.273Z,0.00
2018-07-12T01:57:08.468Z,0.00
2018-07-12T01:58:08.634Z,0.00
2018-07-12T01:59:08.807Z,0.00
2018-07-12T02:00:08.988Z,0.00
2018-07-12T02:01:09.167Z,0.00
2018-07-12T02:02:09.340Z,0.00
2018-07-12T02:03:09.517Z,0.00
2018-07-12T02:04:09.694Z,0.00
2018-07-12T02:05:09.873Z,0.00
2018-07-12T02:06:10.068Z,0.00
2018-07-12T02:07:10.246Z,0.00
2018-07-12T02:08:10.429Z,0.00
2018-07-12T02:09:10.605Z,0.00
2018-07-12T02:10:10.793Z,0.00
2018-07-12T02:11:10.971Z,0.00
2018-07-12T02:12:11.142Z,0.00
2018-07-12T02:13:11.313Z,0.00
2018-07-12T02:14:11.489Z,0.00
2018-07-12T02:15:11.671Z,0.00
2018-07-12T02:16:11.846Z,0.00
2018-07-12T02:17:12.025Z,0.00
2018-07-12T02:18:12.203Z,0.00
2018-07-12T02:19:12.378Z,0.00
2018-07-12T02:20:12.557Z,0.00
2018-07-12T02:21:12.742Z,0.00
2018-07-12T02:22:12.919Z,0.00
2018-07-12T02:23:13.099Z,0.00
2018-07-12T02:24:13.286Z,0.00
2018-07-12T02:25:13.461Z,0.00
2018-07-12T02:26:13.637Z,0.00
2018-07-12T02:27:13.815Z,0.00
2018-07-12T02:28:14.000Z,0.00
2018-07-12T02:29:14.174Z,0.00
2018-07-12T02:30:14.360Z,0.00
2018-07-12T02:31:14.536Z,0.00
2018-07-12T02:32:14.714Z,0.00
2018-07-12T02:33:14.886Z,0.00
2018-07-12T02:34:15.069Z,0.00
2018-07-12T02:35:15.337Z,0.00
2018-07-12T02:36:15.430Z,0.00
2018-07-12T02:37:15.621Z,0.00
2018-07-12T02:38:15.808Z,0.00
2018-07-12T02:39:16.005Z,0.00
2018-07-12T02:40:16.183Z,0.00
2018-07-12T02:41:16.367Z,0.00
2018-07-12T02:42:16.544Z,0.00
2018-07-12T02:43:16.733Z,0.00
2018-07-12T02:44:16.917Z,0.00
2018-07-12T02:45:17.111Z,0.00
2018-07-12T02:46:17.284Z,0.00
2018-07-12T02:47:17.470Z,0.00
2018-07-12T02:48:17.647Z,4.00
2018-07-12T02:49:17.836Z,4.00
2018-07-12T02:50:18.016Z,4.00
2018-07-12T02:51:18.183Z,4.00
2018-07-12T02:52:18.356Z,0.00
2018-07-12T02:53:18.540Z,4.00
2018-07-12T02:54:18.714Z,4.00
2018-07-12T02:55:18.883Z,4.00
2018-07-12T02:56:19.067Z,4.00
2018-07-12T02:57:19.242Z,4.00
2018-07-12T02:58:19.425Z,4.00
2018-07-12T02:59:19.627Z,4.00
2018-07-12T03:00:19.815Z,4.00
2018-07-12T03:01:19.987Z,4.00
2018-07-12T03:02:20.168Z,8.00
2018-07-12T03:03:20.342Z,4.00
2018-07-12T03:04:20.518Z,4.00
2018-07-12T03:05:20.695Z,8.00
2018-07-12T03:06:20.887Z,8.00
2018-07-12T03:07:21.065Z,8.00
2018-07-12T03:08:21.241Z,4.00
2018-07-12T03:09:21.426Z,8.00
2018-07-12T03:10:21.603Z,8.00
2018-07-12T03:11:21.785Z,8.00
2018-07-12T03:12:21.959Z,12.00
2018-07-12T03:13:22.138Z,12.00
2018-07-12T03:14:22.323Z,12.00
2018-07-12T03:15:22.498Z,16.00
2018-07-12T03:16:22.683Z,16.00
2018-07-12T03:17:22.871Z,20.00
2018-07-12T03:18:23.052Z,24.00
2018-07-12T03:19:23.223Z,24.00
2018-07-12T03:20:23.406Z,24.00
2018-07-12T03:21:23.596Z,24.00
2018-07-12T03:22:23.783Z,28.00
2018-07-12T03:23:23.963Z,32.00
2018-07-12T03:24:24.151Z,32.00
2018-07-12T03:25:24.324Z,36.00
2018-07-12T03:26:24.512Z,40.00
2018-07-12T03:27:24.689Z,40.00
2018-07-12T03:28:24.872Z,40.00
2018-07-12T03:29:25.055Z,40.00
2018-07-12T03:30:25.229Z,40.00
2018-07-12T03:31:25.415Z,36.00
2018-07-12T03:32:25.589Z,40.00
2018-07-12T03:33:25.770Z,36.00
2018-07-12T03:34:25.955Z,36.00
2018-07-12T03:35:26.138Z,44.00
2018-07-12T03:36:26.319Z,48.00
2018-07-12T03:37:26.498Z,48.00
2018-07-12T03:38:26.679Z,52.00
2018-07-12T03:39:26.860Z,52.00
2018-07-12T03:40:27.116Z,52.00
2018-07-12T03:41:27.205Z,60.00
2018-07-12T03:42:27.386Z,64.00
2018-07-12T03:43:27.573Z,72.00
2018-07-12T03:44:27.754Z,76.00
2018-07-12T03:45:27.949Z,88.00
2018-07-12T03:46:28.128Z,96.00
2018-07-12T03:47:28.306Z,104.00
2018-07-12T03:48:28.502Z,112.00
2018-07-12T03:49:28.684Z,124.00
2018-07-12T03:50:28.871Z,132.00
2018-07-12T03:51:29.058Z,152.00
2018-07-12T03:52:29.244Z,168.00
2018-07-12T03:53:29.481Z,176.00
2018-07-12T03:54:29.605Z,184.00
2018-07-12T03:55:29.790Z,192.00
2018-07-12T03:56:29.969Z,196.00
2018-07-12T03:57:30.146Z,192.00
2018-07-12T03:58:30.325Z,184.00
2018-07-12T03:59:30.512Z,184.00
2018-07-12T04:00:30.682Z,204.00
2018-07-12T04:01:30.871Z,232.00
2018-07-12T04:02:31.054Z,244.00
2018-07-12T04:03:31.237Z,268.00
2018-07-12T04:04:31.405Z,276.00
2018-07-12T04:05:31.584Z,268.00
2018-07-12T04:06:31.769Z,276.00
2018-07-12T04:07:31.938Z,308.00
2018-07-12T04:08:32.114Z,368.00
2018-07-12T04:09:32.293Z,452.00
2018-07-12T04:10:32.473Z,496.00
2018-07-12T04:11:32.661Z,460.00
2018-07-12T04:12:32.838Z,480.00
2018-07-12T04:13:33.032Z,552.00
2018-07-12T04:14:33.200Z,592.00
2018-07-12T04:15:33.374Z,600.00
2018-07-12T04:16:33.553Z,664.00
2018-07-12T04:17:33.750Z,860.00
2018-07-12T04:18:33.942Z,1088.00
2018-07-12T04:19:34.126Z,1256.00
2018-07-12T04:20:34.315Z,1320.00
2018-07-12T04:21:34.496Z,1388.00
2018-07-12T04:22:34.748Z,1436.00
2018-07-12T04:23:34.898Z,1448.00
2018-07-12T04:24:35.079Z,1432.00
2018-07-12T04:25:35.266Z,1468.00
2018-07-12T04:26:35.458Z,1568.00
2018-07-12T04:27:35.642Z,1672.00
2018-07-12T04:28:35.820Z,1600.00
2018-07-12T04:29:36.008Z,1448.00
2018-07-12T04:30:36.196Z,1284.00
2018-07-12T04:31:36.386Z,1144.00
2018-07-12T04:32:36.978Z,1048.00
2018-07-12T04:33:36.779Z,1204.00
2018-07-12T04:34:37.006Z,1268.00
2018-07-12T04:35:37.269Z,1152.00
2018-07-12T04:36:37.331Z,944.00
2018-07-12T04:37:39.232Z,832.00
2018-07-12T04:38:38.542Z,728.00
2018-07-12T04:39:37.793Z,640.00
2018-07-12T04:40:38.220Z,600.00
2018-07-12T04:41:38.109Z,600.00
2018-07-12T04:42:38.296Z,612.00
2018-07-12T04:43:38.499Z,672.00
2018-07-12T04:44:38.663Z,696.00
2018-07-12T04:45:38.845Z,672.00
2018-07-12T04:46:39.141Z,644.00
2018-07-12T04:47:39.236Z,596.00
2018-07-12T04:48:39.473Z,584.00
2018-07-12T04:49:39.922Z,532.00
2018-07-12T04:50:40.222Z,564.00
2018-07-12T04:51:39.643Z,508.00
2018-07-12T04:52:39.825Z,476.00
2018-07-12T04:53:40.020Z,516.00
2018-07-12T04:54:40.224Z,560.00
2018-07-12T04:55:41.270Z,592.00
2018-07-12T04:56:41.638Z,572.00
2018-07-12T04:57:40.999Z,712.00
2018-07-12T04:58:40.966Z,900.00
2018-07-12T04:59:41.076Z,1004.00
2018-07-12T05:00:41.476Z,1152.00
2018-07-12T05:01:41.522Z,2060.00
2018-07-12T05:02:41.653Z,3176.00
2018-07-12T05:03:41.691Z,4100.00
2018-07-12T05:04:41.885Z,4944.00
2018-07-12T05:05:42.260Z,5592.00
2018-07-12T05:06:42.265Z,5220.00
2018-07-12T05:07:42.482Z,4776.00
2018-07-12T05:08:42.671Z,4832.00
2018-07-12T05:09:42.853Z,4628.00
2018-07-12T05:10:43.038Z,4616.00
2018-07-12T05:11:43.220Z,4852.00
2018-07-12T05:12:43.431Z,5036.00
2018-07-12T05:13:43.619Z,5284.00
2018-07-12T05:14:43.803Z,5392.00
2018-07-12T05:15:43.988Z,5404.00
2018-07-12T05:16:44.184Z,5460.00
2018-07-12T05:17:44.386Z,5588.00
2018-07-12T05:18:44.608Z,5748.00
2018-07-12T05:19:47.443Z,6048.00
2018-07-12T05:20:46.257Z,6216.00
2018-07-12T05:21:46.728Z,6624.00
2018-07-12T05:22:46.647Z,7160.00
2018-07-12T05:23:48.550Z,7140.00
2018-07-12T05:24:48.424Z,7016.00
2018-07-12T05:25:46.361Z,6912.00
2018-07-12T05:26:46.901Z,6844.00
2018-07-12T05:27:49.048Z,6344.00
2018-07-12T05:28:47.309Z,6104.00
2018-07-12T05:29:47.927Z,6184.00
2018-07-12T05:30:48.655Z,6416.00
2018-07-12T05:31:47.734Z,6988.00
2018-07-12T05:32:47.518Z,7744.00
2018-07-12T05:33:48.339Z,7328.00
2018-07-12T05:34:48.312Z,6308.00
2018-07-12T05:35:47.478Z,4672.00
2018-07-12T05:36:47.663Z,3928.00
2018-07-12T05:37:47.840Z,2680.00
2018-07-12T05:38:48.023Z,2736.00
2018-07-12T05:39:48.202Z,2624.00
2018-07-12T05:40:48.382Z,2616.00
2018-07-12T05:41:48.583Z,2612.00
2018-07-12T05:42:48.766Z,2372.00
2018-07-12T05:43:48.949Z,2268.00
2018-07-12T05:44:49.147Z,2276.00
2018-07-12T05:45:49.334Z,2136.00
2018-07-12T05:46:49.618Z,2020.00
2018-07-12T05:47:51.116Z,1960.00
2018-07-12T05:48:49.893Z,2044.00
2018-07-12T05:49:50.090Z,2148.00
2018-07-12T05:50:50.286Z,2252.00
2018-07-12T05:51:50.471Z,2660.00
2018-07-12T05:52:50.647Z,2888.00
2018-07-12T05:53:50.914Z,3976.00
2018-07-12T05:54:50.953Z,5600.00
2018-07-12T05:55:51.146Z,5272.00
2018-07-12T05:56:51.320Z,6308.00
2018-07-12T05:57:51.593Z,9076.00
2018-07-12T05:58:51.650Z,9116.00
2018-07-12T05:59:51.832Z,8560.00
2018-07-12T06:00:52.012Z,7788.00
2018-07-12T06:01:52.197Z,7152.00
2018-07-12T06:02:52.398Z,5608.00
2018-07-12T06:03:52.568Z,4400.00
2018-07-12T06:04:52.961Z,5280.00
2018-07-12T06:05:52.892Z,5300.00
2018-07-12T06:06:53.073Z,4236.00
2018-07-12T06:07:53.265Z,4728.00
2018-07-12T06:08:53.494Z,6940.00
2018-07-12T06:09:53.629Z,6024.00
2018-07-12T06:10:54.036Z,5364.00
2018-07-12T06:11:53.974Z,7284.00
2018-07-12T06:12:54.162Z,6220.00
2018-07-12T06:13:54.524Z,6592.00
2018-07-12T06:14:54.448Z,6312.00
2018-07-12T06:15:54.762Z,5188.00
2018-07-12T06:16:54.812Z,7784.00
2018-07-12T06:17:55.048Z,4732.00
2018-07-12T06:18:55.149Z,3676.00
2018-07-12T06:19:55.296Z,4700.00
2018-07-12T06:20:55.597Z,5340.00
2018-07-12T06:21:55.740Z,4276.00
2018-07-12T06:22:55.858Z,4824.00
2018-07-12T06:23:55.975Z,6028.00
2018-07-12T06:24:56.157Z,4272.00
2018-07-12T06:25:56.344Z,3612.00
2018-07-12T06:26:56.523Z,3364.00
2018-07-12T06:27:56.704Z,2920.00
2018-07-12T06:28:56.885Z,3032.00
2018-07-12T06:29:57.121Z,2968.00
2018-07-12T06:30:57.253Z,3300.00
2018-07-12T06:31:57.432Z,3964.00
2018-07-12T06:32:57.621Z,4632.00
2018-07-12T06:33:57.801Z,3708.00
2018-07-12T06:34:57.977Z,3448.00
2018-07-12T06:35:58.168Z,4904.00
2018-07-12T06:36:58.361Z,4300.00
2018-07-12T06:37:58.578Z,4956.00
2018-07-12T06:38:58.751Z,4076.00
2018-07-12T06:39:58.940Z,4588.00
2018-07-12T06:40:59.125Z,10456.00
2018-07-12T06:41:59.352Z,10468.00
2018-07-12T06:42:59.409Z,9208.00
2018-07-12T06:43:59.595Z,53984.00
2018-07-12T06:44:59.773Z,71040.00
2018-07-12T06:45:59.965Z,92512.00
2018-07-12T06:47:00.314Z,88128.00
2018-07-12T06:48:00.361Z,86880.00
2018-07-12T06:49:00.539Z,93824.00
2018-07-12T06:50:00.796Z,36320.00
2018-07-12T06:51:00.840Z,20768.00
2018-07-12T06:52:01.031Z,18368.00
2018-07-12T06:53:01.231Z,19136.00
2018-07-12T06:54:01.406Z,65984.00
2018-07-12T06:55:01.603Z,22944.00
2018-07-12T06:56:01.787Z,23584.00
2018-07-12T06:57:01.967Z,46688.00
2018-07-12T06:58:02.170Z,12920.00
2018-07-12T06:59:02.372Z,11072.00
2018-07-12T07:00:02.568Z,9516.00
2018-07-12T07:01:02.757Z,11124.00
2018-07-12T07:02:02.941Z,12252.00
2018-07-12T07:03:03.131Z,11828.00
2018-07-12T07:04:03.340Z,13332.00
2018-07-12T07:05:03.531Z,14120.00
2018-07-12T07:06:03.759Z,11688.00
2018-07-12T07:07:03.921Z,12936.00
2018-07-12T07:08:04.102Z,25824.00
2018-07-12T07:09:04.491Z,16896.00
2018-07-12T07:10:04.411Z,20896.00
2018-07-12T07:11:04.599Z,13808.00
2018-07-12T07:12:05.063Z,28448.00
2018-07-12T07:13:05.167Z,23104.00
2018-07-12T07:14:05.125Z,16392.00
2018-07-12T07:15:05.341Z,10812.00
2018-07-12T07:16:05.591Z,8228.00
2018-07-12T07:17:05.651Z,7436.00
2018-07-12T07:18:06.434Z,16972.00
2018-07-12T07:19:06.812Z,84352.00
2018-07-12T07:20:06.435Z,85024.00
2018-07-12T07:21:08.474Z,18784.00
2018-07-12T07:22:07.827Z,12500.00
2018-07-12T07:23:07.290Z,17344.00
2018-07-12T07:24:08.257Z,12728.00
2018-07-12T07:25:09.405Z,8984.00
2018-07-12T07:26:09.293Z,6132.00
2018-07-12T07:27:07.316Z,5960.00
2018-07-12T07:28:08.315Z,9176.00
2018-07-12T07:29:08.624Z,10140.00
2018-07-12T07:30:08.578Z,29440.00
2018-07-12T07:31:09.787Z,9788.00
2018-07-12T07:32:08.766Z,7056.00
2018-07-12T07:33:09.680Z,4804.00
2018-07-12T07:34:08.684Z,14200.00
2018-07-12T07:35:09.848Z,111712.00
2018-07-12T07:36:09.540Z,81472.00
2018-07-12T07:37:10.749Z,25792.00
2018-07-12T07:38:09.873Z,8508.00
2018-07-12T07:39:09.939Z,6504.00
2018-07-12T07:40:10.223Z,5912.00
2018-07-12T07:41:10.270Z,4932.00
2018-07-12T07:42:10.798Z,4360.00
2018-07-12T07:43:10.744Z,3828.00
2018-07-12T07:44:10.965Z,3368.00
2018-07-12T07:45:12.040Z,3260.00
2018-07-12T07:46:10.788Z,4028.00
2018-07-12T07:47:10.701Z,5604.00
2018-07-12T07:48:11.781Z,5520.00
2018-07-12T07:49:12.183Z,4552.00
2018-07-12T07:50:14.685Z,4592.00
2018-07-12T07:51:12.597Z,4808.00
2018-07-12T07:52:12.514Z,5204.00
2018-07-12T07:53:11.844Z,5280.00
2018-07-12T07:54:11.888Z,4924.00
2018-07-12T07:55:12.793Z,4480.00
2018-07-12T07:56:13.804Z,4536.00
2018-07-12T07:57:12.484Z,5112.00
2018-07-12T07:58:13.231Z,5580.00
2018-07-12T07:59:13.859Z,5684.00
2018-07-12T08:00:12.894Z,6436.00
2018-07-12T08:01:13.077Z,8040.00
2018-07-12T08:02:13.431Z,6404.00
2018-07-12T08:03:13.494Z,9256.00
2018-07-12T08:04:13.678Z,10596.00
2018-07-12T08:05:13.871Z,9036.00
2018-07-12T08:06:14.074Z,8120.00
2018-07-12T08:07:14.315Z,7660.00
2018-07-12T08:08:14.366Z,7064.00
2018-07-12T08:09:14.555Z,7180.00
2018-07-12T08:10:14.735Z,9584.00
2018-07-12T08:11:14.930Z,7044.00
2018-07-12T08:12:15.159Z,6880.00
2018-07-12T08:13:15.310Z,9276.00
2018-07-12T08:14:15.501Z,21568.00
2018-07-12T08:15:19.147Z,14776.00
2018-07-12T08:16:15.922Z,13628.00
2018-07-12T08:17:16.045Z,11272.00
2018-07-12T08:18:16.276Z,9492.00
2018-07-12T08:19:16.336Z,8660.00
2018-07-12T08:20:17.021Z,7692.00
2018-07-12T08:21:16.844Z,7104.00
2018-07-12T08:22:17.137Z,6964.00
2018-07-12T08:23:17.232Z,6868.00
2018-07-12T08:24:17.337Z,7324.00
2018-07-12T08:25:17.484Z,6968.00
2018-07-12T08:26:17.727Z,6404.00
2018-07-12T08:27:17.796Z,6400.00
2018-07-12T08:28:17.980Z,6632.00
2018-07-12T08:29:18.163Z,4880.00
2018-07-12T08:30:18.389Z,4256.00
2018-07-12T08:31:18.762Z,4240.00
2018-07-12T08:32:18.931Z,4484.00
2018-07-12T08:33:18.932Z,4944.00
2018-07-12T08:34:19.112Z,5108.00
2018-07-12T08:35:19.295Z,5132.00
2018-07-12T08:36:19.566Z,5040.00
2018-07-12T08:37:19.663Z,4900.00
2018-07-12T08:38:19.855Z,4480.00
2018-07-12T08:39:20.033Z,4248.00
2018-07-12T08:40:20.210Z,4048.00
2018-07-12T08:41:20.396Z,3832.00
2018-07-12T08:42:20.601Z,3888.00
2018-07-12T08:43:20.766Z,4892.00
2018-07-12T08:44:20.945Z,5864.00
2018-07-12T08:45:21.126Z,5836.00
2018-07-12T08:46:21.433Z,6528.00
2018-07-12T08:47:21.433Z,7568.00
2018-07-12T08:48:21.640Z,13384.00
2018-07-12T08:49:21.818Z,10784.00
2018-07-12T08:50:25.518Z,8064.00
2018-07-12T08:51:22.171Z,6076.00
2018-07-12T08:52:22.250Z,5096.00
2018-07-12T08:53:22.431Z,4508.00
2018-07-12T08:54:22.621Z,4108.00
2018-07-12T08:55:22.804Z,3676.00
2018-07-12T08:56:23.060Z,3292.00
2018-07-12T08:57:23.207Z,3252.00
2018-07-12T08:58:23.403Z,3520.00
2018-07-12T08:59:23.571Z,3800.00
2018-07-12T09:00:23.833Z,4016.00
2018-07-12T09:01:23.906Z,4564.00
2018-07-12T09:02:24.107Z,5420.00
2018-07-12T09:03:24.300Z,6304.00
2018-07-12T09:04:24.485Z,7148.00
2018-07-12T09:05:24.669Z,5644.00
2018-07-12T09:06:24.851Z,4472.00
2018-07-12T09:07:25.034Z,3928.00
2018-07-12T09:08:25.225Z,3780.00
2018-07-12T09:09:25.404Z,3976.00
2018-07-12T09:10:25.597Z,4100.00
2018-07-12T09:11:25.789Z,4008.00
2018-07-12T09:12:25.979Z,4116.00
2018-07-12T09:13:26.159Z,4264.00
2018-07-12T09:14:26.351Z,4540.00
2018-07-12T09:15:26.531Z,4596.00
2018-07-12T09:16:26.712Z,4412.00
2018-07-12T09:17:26.897Z,4468.00
2018-07-12T09:18:28.961Z,5340.00
2018-07-12T09:19:27.230Z,5892.00
2018-07-12T09:20:27.420Z,6280.00
2018-07-12T09:21:27.597Z,7784.00
2018-07-12T09:22:27.777Z,7600.00
2018-07-12T09:23:27.978Z,8996.00
2018-07-12T09:24:28.151Z,7232.00
2018-07-12T09:25:28.384Z,6104.00
2018-07-12T09:26:28.531Z,5224.00
2018-07-12T09:27:28.706Z,4916.00
2018-07-12T09:28:28.901Z,5268.00
2018-07-12T09:29:29.097Z,5780.00
2018-07-12T09:30:29.343Z,5916.00
2018-07-12T09:31:29.509Z,6160.00
2018-07-12T09:32:29.693Z,7164.00
2018-07-12T09:33:29.902Z,10028.00
2018-07-12T09:34:31.260Z,9724.00
2018-07-12T09:35:30.259Z,9836.00
2018-07-12T09:36:30.452Z,9096.00
2018-07-12T09:37:30.649Z,8320.00
2018-07-12T09:38:30.852Z,9864.00
2018-07-12T09:39:31.092Z,11988.00
2018-07-12T09:40:31.375Z,10604.00
2018-07-12T09:41:31.354Z,10084.00
2018-07-12T09:42:31.539Z,10240.00
2018-07-12T09:43:31.729Z,9548.00
2018-07-12T09:44:32.116Z,10132.00
2018-07-12T09:45:32.097Z,30752.00
2018-07-12T09:46:32.282Z,8052.00
2018-07-12T09:47:32.529Z,8000.00
2018-07-12T09:48:32.670Z,8284.00
2018-07-12T09:49:32.837Z,7956.00
2018-07-12T09:50:33.034Z,8084.00
2018-07-12T09:51:33.217Z,7468.00
2018-07-12T09:52:34.234Z,6896.00
2018-07-12T09:53:33.602Z,6664.00
2018-07-12T09:54:33.790Z,6316.00
2018-07-12T09:55:33.990Z,5844.00
2018-07-12T09:56:34.232Z,5284.00
2018-07-12T09:57:34.355Z,4880.00
2018-07-12T09:58:35.146Z,5224.00
2018-07-12T09:59:34.714Z,11516.00
2018-07-12T10:00:34.913Z,14932.00
2018-07-12T10:01:35.090Z,9636.00
2018-07-12T10:02:35.277Z,9544.00
2018-07-12T10:03:35.457Z,9928.00
2018-07-12T10:04:35.780Z,10216.00
2018-07-12T10:05:35.871Z,14280.00
2018-07-12T10:06:36.066Z,10800.00
2018-07-12T10:07:36.250Z,10328.00
2018-07-12T10:08:36.449Z,12580.00
2018-07-12T10:09:36.873Z,10700.00
2018-07-12T10:10:36.892Z,14964.00
2018-07-12T10:11:37.023Z,8672.00
2018-07-12T10:12:37.206Z,10284.00
2018-07-12T10:13:37.389Z,11760.00
2018-07-12T10:14:37.569Z,10036.00
2018-07-12T10:15:37.753Z,16288.00
2018-07-12T10:16:38.087Z,11968.00
2018-07-12T10:17:38.141Z,10804.00
2018-07-12T10:18:38.332Z,11040.00
2018-07-12T10:19:38.534Z,11508.00
2018-07-12T10:20:38.706Z,11308.00
2018-07-12T10:21:38.891Z,11924.00
2018-07-12T10:22:39.077Z,11964.00
2018-07-12T10:23:39.256Z,11624.00
2018-07-12T10:24:39.440Z,11836.00
2018-07-12T10:25:39.633Z,10476.00
2018-07-12T10:26:39.826Z,10608.00
2018-07-12T10:27:40.018Z,10812.00
2018-07-12T10:28:40.249Z,9748.00
2018-07-12T10:29:40.370Z,8300.00
2018-07-12T10:30:40.510Z,7424.00
2018-07-12T10:31:40.709Z,7164.00
2018-07-12T10:32:40.900Z,7356.00
2018-07-12T10:33:41.123Z,7320.00
2018-07-12T10:34:41.355Z,6824.00
2018-07-12T10:35:41.420Z,6164.00
2018-07-12T10:36:41.619Z,5692.00
2018-07-12T10:37:41.808Z,5364.00
2018-07-12T10:38:42.460Z,5976.00
2018-07-12T10:39:42.206Z,7120.00
2018-07-12T10:40:42.391Z,8428.00
2018-07-12T10:41:42.570Z,11240.00
2018-07-12T10:42:42.752Z,12616.00
2018-07-12T10:43:42.944Z,12284.00
2018-07-12T10:44:43.145Z,11584.00
2018-07-12T10:45:43.327Z,10372.00
2018-07-12T10:46:45.045Z,8456.00
2018-07-12T10:47:43.707Z,6944.00
2018-07-12T10:48:43.906Z,6196.00
2018-07-12T10:49:44.142Z,5820.00
2018-07-12T10:50:44.381Z,5284.00
2018-07-12T10:51:48.310Z,4768.00
2018-07-12T10:52:44.547Z,4252.00
2018-07-12T10:53:44.733Z,4300.00
2018-07-12T10:54:44.919Z,5096.00
2018-07-12T10:55:45.102Z,6568.00
2018-07-12T10:56:45.291Z,8860.00
2018-07-12T10:57:45.488Z,9476.00
2018-07-12T10:58:45.672Z,10012.00
2018-07-12T10:59:45.860Z,10232.00
2018-07-12T11:00:46.067Z,9776.00
2018-07-12T11:01:46.254Z,8776.00
2018-07-12T11:02:46.486Z,7460.00
2018-07-12T11:03:46.650Z,6080.00
2018-07-12T11:04:46.847Z,4936.00
2018-07-12T11:05:47.011Z,4200.00
2018-07-12T11:06:47.199Z,4060.00
2018-07-12T11:07:47.388Z,4576.00
2018-07-12T11:08:47.576Z,5816.00
2018-07-12T11:09:47.767Z,7636.00
2018-07-12T11:10:48.327Z,8248.00
2018-07-12T11:11:51.782Z,8524.00
2018-07-12T11:12:48.292Z,8832.00
2018-07-12T11:13:48.484Z,8756.00
2018-07-12T11:14:48.691Z,9192.00
2018-07-12T11:15:48.916Z,9800.00
2018-07-12T11:16:50.915Z,8984.00
2018-07-12T11:17:49.290Z,7440.00
2018-07-12T11:18:49.471Z,6016.00
2018-07-12T11:19:49.860Z,5116.00
2018-07-12T11:20:50.379Z,4716.00
2018-07-12T11:21:50.077Z,4452.00
2018-07-12T11:22:50.262Z,4620.00
2018-07-12T11:23:50.488Z,5780.00
2018-07-12T11:24:50.693Z,7340.00
2018-07-12T11:25:50.747Z,8044.00
2018-07-12T11:26:50.939Z,8700.00
2018-07-12T11:27:51.129Z,8484.00
2018-07-12T11:28:51.324Z,8888.00
2018-07-12T11:29:51.514Z,9996.00
2018-07-12T11:30:51.733Z,10528.00
2018-07-12T11:31:51.915Z,10396.00
2018-07-12T11:32:52.104Z,9016.00
2018-07-12T11:33:52.295Z,8372.00
2018-07-12T11:34:52.557Z,7704.00
2018-07-12T11:35:52.616Z,7752.00
2018-07-12T11:36:54.534Z,8512.00
2018-07-12T11:37:52.920Z,8948.00
2018-07-12T11:38:53.106Z,9048.00
2018-07-12T11:39:53.303Z,7868.00
2018-07-12T11:40:53.495Z,6684.00
2018-07-12T11:41:53.693Z,6052.00
2018-07-12T11:42:53.871Z,5836.00
2018-07-12T11:43:54.085Z,5748.00
2018-07-12T11:44:54.553Z,6096.00
2018-07-12T11:45:54.485Z,6760.00
2018-07-12T11:46:54.713Z,7256.00
2018-07-12T11:47:54.782Z,7156.00
2018-07-12T11:48:54.981Z,6468.00
2018-07-12T11:49:55.318Z,5616.00
2018-07-12T11:50:55.405Z,4808.00
2018-07-12T11:51:55.553Z,4120.00
2018-07-12T11:52:57.764Z,3628.00
2018-07-12T11:53:58.753Z,3124.00
2018-07-12T11:54:57.431Z,2788.00
2018-07-12T11:55:58.723Z,2592.00
2018-07-12T11:56:59.098Z,2452.00
2018-07-12T11:57:58.982Z,2448.00
2018-07-12T11:58:59.750Z,2572.00
2018-07-12T11:59:59.523Z,3096.00
2018-07-12T12:00:58.412Z,3156.00
2018-07-12T12:01:57.885Z,4316.00
2018-07-12T12:02:57.511Z,5052.00
2018-07-12T12:03:57.811Z,5620.00
2018-07-12T12:04:59.947Z,5980.00
2018-07-12T12:06:01.021Z,5952.00
2018-07-12T12:06:58.764Z,5600.00
2018-07-12T12:07:58.878Z,5264.00
2018-07-12T12:08:58.736Z,4968.00
2018-07-12T12:09:59.614Z,4728.00
2018-07-12T12:10:59.462Z,4484.00
2018-07-12T12:11:59.392Z,3992.00
2018-07-12T12:13:00.345Z,3940.00
2018-07-12T12:14:02.076Z,3980.00
2018-07-12T12:15:00.401Z,4412.00
2018-07-12T12:16:00.158Z,4972.00
2018-07-12T12:17:00.147Z,5304.00
2018-07-12T12:18:01.316Z,4712.00
2018-07-12T12:19:02.045Z,4000.00
2018-07-12T12:20:02.071Z,3520.00
2018-07-12T12:21:01.437Z,3220.00
2018-07-12T12:22:01.771Z,3280.00
2018-07-12T12:23:02.819Z,3528.00
2018-07-12T12:24:02.545Z,3896.00
2018-07-12T12:25:02.346Z,4008.00
2018-07-12T12:26:02.729Z,4236.00
2018-07-12T12:27:02.443Z,4936.00